sensor_id;sensor_type;location;lat;lon;timestamp;P1;durP1;ratioP1;P2;durP2;ratioP2
17235;SDS011;8734;59.272;17.780;2022-08-19T00:01:53;30.10;;;16.23;;
17235;SDS011;8734;59.272;17.780;2022-08-19T00:04:26;31.00;;;16.60;;
17235;SDS011;8734;59.272;17.780;2022-08-19T00:06:57;23.40;;;16.33;;
17235;SDS011;8734;59.272;17.780;2022-08-19T00:09:27;21.27;;;15.10;;
17235;SDS011;8734;59.272;17.780;2022-08-19T00:11:56;24.03;;;15.23;;
17235;SDS011;8734;59.272;17.780;2022-08-19T00:14:25;25.60;;;15.93;;
17235;SDS011;8734;59.272;17.780;2022-08-19T00:17:00;29.83;;;16.83;;
17235;SDS011;8734;59.272;17.780;2022-08-19T00:19:28;31.70;;;15.43;;
17235;SDS011;8734;59.272;17.780;2022-08-19T00:21:57;22.30;;;15.77;;
17235;SDS011;8734;59.272;17.780;2022-08-19T00:24:26;22.60;;;16.07;;
17235;SDS011;8734;59.272;17.780;2022-08-19T00:26:55;28.83;;;16.70;;
17235;SDS011;8734;59.272;17.780;2022-08-19T00:29:44;28.93;;;15.47;;
17235;SDS011;8734;59.272;17.780;2022-08-19T00:32:19;26.40;;;17.37;;
17235;SDS011;8734;59.272;17.780;2022-08-19T00:34:49;25.37;;;16.47;;
17235;SDS011;8734;59.272;17.780;2022-08-19T00:37:19;26.20;;;16.77;;
17235;SDS011;8734;59.272;17.780;2022-08-19T00:39:49;30.47;;;17.53;;
17235;SDS011;8734;59.272;17.780;2022-08-19T00:42:19;28.77;;;17.07;;
17235;SDS011;8734;59.272;17.780;2022-08-19T00:44:48;34.53;;;19.13;;
17235;SDS011;8734;59.272;17.780;2022-08-19T00:47:17;30.30;;;19.70;;
17235;SDS011;8734;59.272;17.780;2022-08-19T00:49:48;30.73;;;19.90;;
17235;SDS011;8734;59.272;17.780;2022-08-19T00:52:22;34.90;;;18.93;;
17235;SDS011;8734;59.272;17.780;2022-08-19T00:54:53;33.97;;;19.87;;
17235;SDS011;8734;59.272;17.780;2022-08-19T00:57:24;35.10;;;20.43;;
17235;SDS011;8734;59.272;17.780;2022-08-19T00:59:55;39.60;;;19.50;;
17235;SDS011;8734;59.272;17.780;2022-08-19T01:02:30;36.57;;;21.73;;
17235;SDS011;8734;59.272;17.780;2022-08-19T01:05:00;37.33;;;19.90;;
17235;SDS011;8734;59.272;17.780;2022-08-19T01:07:31;36.83;;;21.17;;
17235;SDS011;8734;59.272;17.780;2022-08-19T01:10:04;36.47;;;20.97;;
17235;SDS011;8734;59.272;17.780;2022-08-19T01:12:34;39.60;;;20.67;;
17235;SDS011;8734;59.272;17.780;2022-08-19T01:15:02;34.33;;;20.67;;
17235;SDS011;8734;59.272;17.780;2022-08-19T01:17:33;35.97;;;21.73;;
17235;SDS011;8734;59.272;17.780;2022-08-19T01:20:03;35.23;;;20.50;;
17235;SDS011;8734;59.272;17.780;2022-08-19T01:22:35;42.07;;;21.80;;
17235;SDS011;8734;59.272;17.780;2022-08-19T01:25:12;33.67;;;19.90;;
17235;SDS011;8734;59.272;17.780;2022-08-19T01:27:43;43.53;;;20.87;;
17235;SDS011;8734;59.272;17.780;2022-08-19T01:30:15;39.07;;;21.67;;
17235;SDS011;8734;59.272;17.780;2022-08-19T01:32:45;35.70;;;20.40;;
17235;SDS011;8734;59.272;17.780;2022-08-19T01:35:14;33.73;;;20.57;;
17235;SDS011;8734;59.272;17.780;2022-08-19T01:37:47;41.53;;;20.80;;
17235;SDS011;8734;59.272;17.780;2022-08-19T01:40:19;35.67;;;19.83;;
17235;SDS011;8734;59.272;17.780;2022-08-19T01:42:50;41.03;;;20.87;;
17235;SDS011;8734;59.272;17.780;2022-08-19T01:45:21;35.13;;;20.17;;
17235;SDS011;8734;59.272;17.780;2022-08-19T01:47:51;35.47;;;20.27;;
17235;SDS011;8734;59.272;17.780;2022-08-19T01:50:27;35.00;;;19.83;;
17235;SDS011;8734;59.272;17.780;2022-08-19T01:52:59;40.27;;;19.90;;
17235;SDS011;8734;59.272;17.780;2022-08-19T01:55:33;35.57;;;20.70;;
17235;SDS011;8734;59.272;17.780;2022-08-19T01:58:07;41.67;;;22.23;;
17235;SDS011;8734;59.272;17.780;2022-08-19T02:00:38;34.30;;;20.57;;
17235;SDS011;8734;59.272;17.780;2022-08-19T02:03:07;43.30;;;21.93;;
17235;SDS011;8734;59.272;17.780;2022-08-19T02:05:38;36.20;;;20.57;;
17235;SDS011;8734;59.272;17.780;2022-08-19T02:08:08;34.80;;;20.63;;
17235;SDS011;8734;59.272;17.780;2022-08-19T02:10:38;37.27;;;20.90;;
17235;SDS011;8734;59.272;17.780;2022-08-19T02:13:08;45.00;;;20.70;;
17235;SDS011;8734;59.272;17.780;2022-08-19T02:15:37;41.93;;;21.60;;
17235;SDS011;8734;59.272;17.780;2022-08-19T02:18:06;35.87;;;20.27;;
17235;SDS011;8734;59.272;17.780;2022-08-19T02:20:35;37.37;;;21.03;;
17235;SDS011;8734;59.272;17.780;2022-08-19T02:23:05;37.87;;;20.00;;
17235;SDS011;8734;59.272;17.780;2022-08-19T02:25:43;36.07;;;20.73;;
17235;SDS011;8734;59.272;17.780;2022-08-19T02:28:14;42.90;;;20.73;;
17235;SDS011;8734;59.272;17.780;2022-08-19T02:30:46;40.57;;;22.53;;
17235;SDS011;8734;59.272;17.780;2022-08-19T02:33:15;35.97;;;19.70;;
17235;SDS011;8734;59.272;17.780;2022-08-19T02:35:44;39.70;;;20.93;;
17235;SDS011;8734;59.272;17.780;2022-08-19T02:38:13;34.93;;;19.27;;
17235;SDS011;8734;59.272;17.780;2022-08-19T02:41:02;35.77;;;19.47;;
17235;SDS011;8734;59.272;17.780;2022-08-19T02:43:32;38.07;;;21.03;;
17235;SDS011;8734;59.272;17.780;2022-08-19T02:46:02;38.00;;;21.87;;
17235;SDS011;8734;59.272;17.780;2022-08-19T02:48:40;39.40;;;21.10;;
17235;SDS011;8734;59.272;17.780;2022-08-19T02:51:08;36.80;;;21.20;;
17235;SDS011;8734;59.272;17.780;2022-08-19T02:53:42;36.30;;;21.97;;
17235;SDS011;8734;59.272;17.780;2022-08-19T02:56:12;37.33;;;20.50;;
17235;SDS011;8734;59.272;17.780;2022-08-19T02:58:41;38.17;;;21.57;;
17235;SDS011;8734;59.272;17.780;2022-08-19T03:01:18;38.43;;;22.33;;
17235;SDS011;8734;59.272;17.780;2022-08-19T03:03:48;36.63;;;20.93;;
17235;SDS011;8734;59.272;17.780;2022-08-19T03:06:17;39.50;;;22.10;;
17235;SDS011;8734;59.272;17.780;2022-08-19T03:08:46;39.87;;;21.50;;
17235;SDS011;8734;59.272;17.780;2022-08-19T03:11:18;38.70;;;20.63;;
17235;SDS011;8734;59.272;17.780;2022-08-19T03:13:48;34.73;;;20.23;;
17235;SDS011;8734;59.272;17.780;2022-08-19T03:16:17;35.37;;;20.47;;
17235;SDS011;8734;59.272;17.780;2022-08-19T03:18:46;36.17;;;20.37;;
17235;SDS011;8734;59.272;17.780;2022-08-19T03:21:15;35.60;;;20.57;;
17235;SDS011;8734;59.272;17.780;2022-08-19T03:23:43;38.23;;;20.50;;
17235;SDS011;8734;59.272;17.780;2022-08-19T03:26:12;32.30;;;20.17;;
17235;SDS011;8734;59.272;17.780;2022-08-19T03:28:44;35.67;;;20.33;;
17235;SDS011;8734;59.272;17.780;2022-08-19T03:31:20;39.53;;;20.87;;
17235;SDS011;8734;59.272;17.780;2022-08-19T03:34:10;32.27;;;19.77;;
17235;SDS011;8734;59.272;17.780;2022-08-19T03:36:40;37.97;;;20.67;;
17235;SDS011;8734;59.272;17.780;2022-08-19T03:39:09;37.80;;;21.93;;
17235;SDS011;8734;59.272;17.780;2022-08-19T03:41:38;42.17;;;21.97;;
17235;SDS011;8734;59.272;17.780;2022-08-19T03:44:12;37.00;;;20.63;;
17235;SDS011;8734;59.272;17.780;2022-08-19T03:46:44;32.23;;;21.20;;
17235;SDS011;8734;59.272;17.780;2022-08-19T03:49:15;50.60;;;21.90;;
17235;SDS011;8734;59.272;17.780;2022-08-19T03:51:45;36.63;;;21.40;;
17235;SDS011;8734;59.272;17.780;2022-08-19T03:54:17;36.20;;;20.87;;
17235;SDS011;8734;59.272;17.780;2022-08-19T03:56:47;34.40;;;19.73;;
17235;SDS011;8734;59.272;17.780;2022-08-19T03:59:19;35.23;;;19.73;;
17235;SDS011;8734;59.272;17.780;2022-08-19T04:01:52;38.33;;;19.70;;
17235;SDS011;8734;59.272;17.780;2022-08-19T04:04:21;39.50;;;21.13;;
17235;SDS011;8734;59.272;17.780;2022-08-19T04:06:54;34.17;;;19.47;;
17235;SDS011;8734;59.272;17.780;2022-08-19T04:09:23;31.27;;;19.40;;
17235;SDS011;8734;59.272;17.780;2022-08-19T04:11:53;40.47;;;20.67;;
17235;SDS011;8734;59.272;17.780;2022-08-19T04:14:25;34.63;;;20.13;;
17235;SDS011;8734;59.272;17.780;2022-08-19T04:16:55;46.90;;;21.00;;
17235;SDS011;8734;59.272;17.780;2022-08-19T04:19:24;40.47;;;21.07;;
17235;SDS011;8734;59.272;17.780;2022-08-19T04:21:53;34.87;;;19.93;;
17235;SDS011;8734;59.272;17.780;2022-08-19T04:24:22;44.90;;;20.53;;
17235;SDS011;8734;59.272;17.780;2022-08-19T04:26:51;37.67;;;20.60;;
17235;SDS011;8734;59.272;17.780;2022-08-19T04:29:20;41.67;;;20.53;;
17235;SDS011;8734;59.272;17.780;2022-08-19T04:31:53;42.57;;;22.07;;
17235;SDS011;8734;59.272;17.780;2022-08-19T04:34:23;41.33;;;21.40;;
17235;SDS011;8734;59.272;17.780;2022-08-19T04:36:53;34.30;;;20.93;;
17235;SDS011;8734;59.272;17.780;2022-08-19T04:39:24;42.53;;;21.17;;
17235;SDS011;8734;59.272;17.780;2022-08-19T04:42:15;35.17;;;19.97;;
17235;SDS011;8734;59.272;17.780;2022-08-19T04:45:03;40.57;;;21.33;;
17235;SDS011;8734;59.272;17.780;2022-08-19T04:47:39;40.97;;;22.20;;
17235;SDS011;8734;59.272;17.780;2022-08-19T04:50:24;39.93;;;21.37;;
17235;SDS011;8734;59.272;17.780;2022-08-19T04:52:53;53.73;;;22.77;;
17235;SDS011;8734;59.272;17.780;2022-08-19T04:55:22;46.17;;;22.23;;
17235;SDS011;8734;59.272;17.780;2022-08-19T04:57:52;44.80;;;22.30;;
17235;SDS011;8734;59.272;17.780;2022-08-19T05:00:20;43.17;;;22.00;;
17235;SDS011;8734;59.272;17.780;2022-08-19T05:02:50;39.13;;;19.97;;
17235;SDS011;8734;59.272;17.780;2022-08-19T05:05:19;40.50;;;19.83;;
17235;SDS011;8734;59.272;17.780;2022-08-19T05:07:47;37.40;;;20.43;;
17235;SDS011;8734;59.272;17.780;2022-08-19T05:10:16;37.40;;;19.73;;
17235;SDS011;8734;59.272;17.780;2022-08-19T05:12:44;35.47;;;20.83;;
17235;SDS011;8734;59.272;17.780;2022-08-19T05:15:13;41.27;;;22.27;;
17235;SDS011;8734;59.272;17.780;2022-08-19T05:17:41;48.93;;;23.10;;
17235;SDS011;8734;59.272;17.780;2022-08-19T05:20:31;44.00;;;22.00;;
17235;SDS011;8734;59.272;17.780;2022-08-19T05:23:17;40.67;;;22.00;;
17235;SDS011;8734;59.272;17.780;2022-08-19T05:25:48;37.27;;;19.67;;
17235;SDS011;8734;59.272;17.780;2022-08-19T05:28:18;36.27;;;19.87;;
17235;SDS011;8734;59.272;17.780;2022-08-19T05:30:46;34.17;;;20.13;;
17235;SDS011;8734;59.272;17.780;2022-08-19T05:33:20;40.63;;;21.50;;
17235;SDS011;8734;59.272;17.780;2022-08-19T05:35:51;38.07;;;21.30;;
17235;SDS011;8734;59.272;17.780;2022-08-19T05:38:19;38.63;;;19.60;;
17235;SDS011;8734;59.272;17.780;2022-08-19T05:40:47;35.13;;;19.37;;
17235;SDS011;8734;59.272;17.780;2022-08-19T05:43:16;42.97;;;21.43;;
17235;SDS011;8734;59.272;17.780;2022-08-19T05:45:44;41.67;;;21.47;;
17235;SDS011;8734;59.272;17.780;2022-08-19T05:48:13;39.80;;;20.23;;
17235;SDS011;8734;59.272;17.780;2022-08-19T05:50:47;34.90;;;21.47;;
17235;SDS011;8734;59.272;17.780;2022-08-19T05:53:18;41.87;;;23.30;;
17235;SDS011;8734;59.272;17.780;2022-08-19T05:55:46;37.97;;;21.17;;
17235;SDS011;8734;59.272;17.780;2022-08-19T05:58:14;31.17;;;19.17;;
17235;SDS011;8734;59.272;17.780;2022-08-19T06:00:48;38.20;;;20.53;;
17235;SDS011;8734;59.272;17.780;2022-08-19T06:03:16;33.57;;;19.63;;
17235;SDS011;8734;59.272;17.780;2022-08-19T06:05:44;35.27;;;18.93;;
17235;SDS011;8734;59.272;17.780;2022-08-19T06:08:19;34.37;;;18.73;;
17235;SDS011;8734;59.272;17.780;2022-08-19T06:11:12;34.37;;;18.40;;
17235;SDS011;8734;59.272;17.780;2022-08-19T06:13:42;35.10;;;17.93;;
17235;SDS011;8734;59.272;17.780;2022-08-19T06:16:15;31.23;;;19.07;;
17235;SDS011;8734;59.272;17.780;2022-08-19T06:18:47;34.27;;;19.73;;
17235;SDS011;8734;59.272;17.780;2022-08-19T06:21:18;28.70;;;18.40;;
17235;SDS011;8734;59.272;17.780;2022-08-19T06:23:48;30.83;;;17.83;;
17235;SDS011;8734;59.272;17.780;2022-08-19T06:26:18;28.67;;;16.30;;
17235;SDS011;8734;59.272;17.780;2022-08-19T06:28:47;30.77;;;18.37;;
17235;SDS011;8734;59.272;17.780;2022-08-19T06:31:17;28.20;;;15.73;;
17235;SDS011;8734;59.272;17.780;2022-08-19T06:33:48;29.70;;;17.23;;
17235;SDS011;8734;59.272;17.780;2022-08-19T06:36:18;29.20;;;16.60;;
17235;SDS011;8734;59.272;17.780;2022-08-19T06:38:52;28.75;;;16.10;;
17235;SDS011;8734;59.272;17.780;2022-08-19T06:41:21;25.33;;;15.37;;
17235;SDS011;8734;59.272;17.780;2022-08-19T06:43:49;26.70;;;16.07;;
17235;SDS011;8734;59.272;17.780;2022-08-19T06:46:22;30.10;;;16.43;;
17235;SDS011;8734;59.272;17.780;2022-08-19T06:48:51;30.70;;;16.33;;
17235;SDS011;8734;59.272;17.780;2022-08-19T06:51:20;32.50;;;16.30;;
17235;SDS011;8734;59.272;17.780;2022-08-19T06:53:55;32.70;;;15.70;;
17235;SDS011;8734;59.272;17.780;2022-08-19T06:56:29;27.38;;;14.70;;
17235;SDS011;8734;59.272;17.780;2022-08-19T06:59:00;26.67;;;14.50;;
17235;SDS011;8734;59.272;17.780;2022-08-19T07:01:29;23.03;;;14.17;;
17235;SDS011;8734;59.272;17.780;2022-08-19T07:03:57;20.65;;;13.75;;
17235;SDS011;8734;59.272;17.780;2022-08-19T07:06:28;21.40;;;13.82;;
17235;SDS011;8734;59.272;17.780;2022-08-19T07:09:11;27.73;;;14.40;;
17235;SDS011;8734;59.272;17.780;2022-08-19T07:11:44;27.35;;;13.20;;
17235;SDS011;8734;59.272;17.780;2022-08-19T07:14:14;20.25;;;11.63;;
17235;SDS011;8734;59.272;17.780;2022-08-19T07:16:45;15.68;;;10.60;;
17235;SDS011;8734;59.272;17.780;2022-08-19T07:19:16;17.17;;;11.20;;
17235;SDS011;8734;59.272;17.780;2022-08-19T07:21:45;22.10;;;11.73;;
17235;SDS011;8734;59.272;17.780;2022-08-19T07:24:17;18.75;;;10.73;;
17235;SDS011;8734;59.272;17.780;2022-08-19T07:26:46;20.52;;;10.85;;
17235;SDS011;8734;59.272;17.780;2022-08-19T07:29:17;16.75;;;10.35;;
17235;SDS011;8734;59.272;17.780;2022-08-19T07:31:53;24.80;;;10.05;;
17235;SDS011;8734;59.272;17.780;2022-08-19T07:34:25;26.08;;;9.75;;
17235;SDS011;8734;59.272;17.780;2022-08-19T07:36:55;19.35;;;10.00;;
17235;SDS011;8734;59.272;17.780;2022-08-19T07:39:26;25.67;;;9.80;;
17235;SDS011;8734;59.272;17.780;2022-08-19T07:41:58;26.00;;;9.27;;
17235;SDS011;8734;59.272;17.780;2022-08-19T07:44:28;14.65;;;8.57;;
17235;SDS011;8734;59.272;17.780;2022-08-19T07:46:57;17.10;;;8.15;;
17235;SDS011;8734;59.272;17.780;2022-08-19T07:49:27;19.52;;;8.77;;
17235;SDS011;8734;59.272;17.780;2022-08-19T07:51:56;22.15;;;8.50;;
17235;SDS011;8734;59.272;17.780;2022-08-19T07:54:30;15.10;;;7.65;;
17235;SDS011;8734;59.272;17.780;2022-08-19T07:57:01;17.75;;;8.05;;
17235;SDS011;8734;59.272;17.780;2022-08-19T07:59:31;13.60;;;7.30;;
17235;SDS011;8734;59.272;17.780;2022-08-19T08:02:00;22.63;;;7.65;;
17235;SDS011;8734;59.272;17.780;2022-08-19T08:04:29;13.50;;;7.68;;
17235;SDS011;8734;59.272;17.780;2022-08-19T08:07:16;14.52;;;7.60;;
17235;SDS011;8734;59.272;17.780;2022-08-19T08:10:05;14.77;;;6.85;;
17235;SDS011;8734;59.272;17.780;2022-08-19T08:12:46;18.67;;;7.82;;
17235;SDS011;8734;59.272;17.780;2022-08-19T08:15:35;28.33;;;7.80;;
17235;SDS011;8734;59.272;17.780;2022-08-19T08:18:08;22.00;;;6.72;;
17235;SDS011;8734;59.272;17.780;2022-08-19T08:20:38;18.35;;;6.47;;
17235;SDS011;8734;59.272;17.780;2022-08-19T08:23:06;26.88;;;7.65;;
17235;SDS011;8734;59.272;17.780;2022-08-19T08:25:54;19.80;;;6.97;;
17235;SDS011;8734;59.272;17.780;2022-08-19T08:28:24;18.80;;;6.13;;
17235;SDS011;8734;59.272;17.780;2022-08-19T08:30:55;18.13;;;6.85;;
17235;SDS011;8734;59.272;17.780;2022-08-19T08:33:26;18.58;;;6.80;;
17235;SDS011;8734;59.272;17.780;2022-08-19T08:36:00;18.50;;;6.70;;
17235;SDS011;8734;59.272;17.780;2022-08-19T08:38:29;15.55;;;5.95;;
17235;SDS011;8734;59.272;17.780;2022-08-19T08:41:09;13.95;;;6.10;;
17235;SDS011;8734;59.272;17.780;2022-08-19T08:43:47;15.82;;;5.75;;
17235;SDS011;8734;59.272;17.780;2022-08-19T08:46:19;16.35;;;5.82;;
17235;SDS011;8734;59.272;17.780;2022-08-19T08:48:58;16.23;;;5.97;;
17235;SDS011;8734;59.272;17.780;2022-08-19T08:51:32;14.05;;;5.22;;
17235;SDS011;8734;59.272;17.780;2022-08-19T08:54:05;12.63;;;5.70;;
17235;SDS011;8734;59.272;17.780;2022-08-19T08:56:41;20.05;;;5.10;;
17235;SDS011;8734;59.272;17.780;2022-08-19T08:59:15;20.77;;;5.15;;
17235;SDS011;8734;59.272;17.780;2022-08-19T09:01:48;11.25;;;4.47;;
17235;SDS011;8734;59.272;17.780;2022-08-19T09:04:17;15.10;;;5.35;;
17235;SDS011;8734;59.272;17.780;2022-08-19T09:06:48;13.02;;;4.85;;
17235;SDS011;8734;59.272;17.780;2022-08-19T09:09:24;11.80;;;5.00;;
17235;SDS011;8734;59.272;17.780;2022-08-19T09:12:03;27.42;;;5.25;;
17235;SDS011;8734;59.272;17.780;2022-08-19T09:14:40;18.67;;;5.13;;
17235;SDS011;8734;59.272;17.780;2022-08-19T09:17:18;16.10;;;4.88;;
17235;SDS011;8734;59.272;17.780;2022-08-19T09:19:58;14.52;;;5.20;;
17235;SDS011;8734;59.272;17.780;2022-08-19T09:22:34;12.63;;;4.80;;
17235;SDS011;8734;59.272;17.780;2022-08-19T09:25:04;10.93;;;5.10;;
17235;SDS011;8734;59.272;17.780;2022-08-19T09:27:35;13.43;;;4.50;;
17235;SDS011;8734;59.272;17.780;2022-08-19T09:30:10;17.08;;;5.03;;
17235;SDS011;8734;59.272;17.780;2022-08-19T09:32:42;17.67;;;4.60;;
17235;SDS011;8734;59.272;17.780;2022-08-19T09:35:11;17.98;;;4.68;;
17235;SDS011;8734;59.272;17.780;2022-08-19T09:37:41;16.90;;;4.65;;
17235;SDS011;8734;59.272;17.780;2022-08-19T09:40:10;15.57;;;5.07;;
17235;SDS011;8734;59.272;17.780;2022-08-19T09:42:42;19.58;;;4.45;;
17235;SDS011;8734;59.272;17.780;2022-08-19T09:45:16;14.10;;;4.50;;
17235;SDS011;8734;59.272;17.780;2022-08-19T09:47:48;10.75;;;4.30;;
17235;SDS011;8734;59.272;17.780;2022-08-19T09:50:20;14.98;;;4.18;;
17235;SDS011;8734;59.272;17.780;2022-08-19T09:52:50;15.63;;;4.43;;
17235;SDS011;8734;59.272;17.780;2022-08-19T09:55:23;17.83;;;4.43;;
17235;SDS011;8734;59.272;17.780;2022-08-19T09:58:02;11.90;;;4.40;;
17235;SDS011;8734;59.272;17.780;2022-08-19T10:00:30;10.63;;;4.22;;
17235;SDS011;8734;59.272;17.780;2022-08-19T10:02:59;16.77;;;4.78;;
17235;SDS011;8734;59.272;17.780;2022-08-19T10:05:28;15.82;;;3.97;;
17235;SDS011;8734;59.272;17.780;2022-08-19T10:08:15;10.60;;;4.22;;
17235;SDS011;8734;59.272;17.780;2022-08-19T10:10:46;7.50;;;4.00;;
17235;SDS011;8734;59.272;17.780;2022-08-19T10:13:17;10.77;;;4.15;;
17235;SDS011;8734;59.272;17.780;2022-08-19T10:15:48;8.70;;;4.05;;
17235;SDS011;8734;59.272;17.780;2022-08-19T10:18:18;14.93;;;4.43;;
17235;SDS011;8734;59.272;17.780;2022-08-19T10:20:47;17.10;;;4.40;;
17235;SDS011;8734;59.272;17.780;2022-08-19T10:23:19;15.18;;;4.50;;
17235;SDS011;8734;59.272;17.780;2022-08-19T10:25:48;11.55;;;3.90;;
17235;SDS011;8734;59.272;17.780;2022-08-19T10:28:21;19.55;;;4.18;;
17235;SDS011;8734;59.272;17.780;2022-08-19T10:30:50;8.02;;;4.05;;
17235;SDS011;8734;59.272;17.780;2022-08-19T10:33:18;8.95;;;4.00;;
17235;SDS011;8734;59.272;17.780;2022-08-19T10:36:08;13.10;;;4.28;;
17235;SDS011;8734;59.272;17.780;2022-08-19T10:38:37;16.23;;;3.90;;
17235;SDS011;8734;59.272;17.780;2022-08-19T10:41:19;6.95;;;3.88;;
17235;SDS011;8734;59.272;17.780;2022-08-19T10:43:51;8.95;;;3.92;;
17235;SDS011;8734;59.272;17.780;2022-08-19T10:46:21;7.82;;;3.70;;
17235;SDS011;8734;59.272;17.780;2022-08-19T10:48:51;14.43;;;3.63;;
17235;SDS011;8734;59.272;17.780;2022-08-19T10:51:20;10.18;;;3.90;;
17235;SDS011;8734;59.272;17.780;2022-08-19T10:54:13;10.93;;;4.13;;
17235;SDS011;8734;59.272;17.780;2022-08-19T10:56:42;12.85;;;3.70;;
17235;SDS011;8734;59.272;17.780;2022-08-19T10:59:22;7.93;;;4.00;;
17235;SDS011;8734;59.272;17.780;2022-08-19T11:01:59;14.32;;;4.05;;
17235;SDS011;8734;59.272;17.780;2022-08-19T11:04:29;10.80;;;3.72;;
17235;SDS011;8734;59.272;17.780;2022-08-19T11:06:58;14.48;;;4.53;;
17235;SDS011;8734;59.272;17.780;2022-08-19T11:09:26;12.23;;;4.25;;
17235;SDS011;8734;59.272;17.780;2022-08-19T11:11:59;17.45;;;4.22;;
17235;SDS011;8734;59.272;17.780;2022-08-19T11:14:32;14.73;;;3.97;;
17235;SDS011;8734;59.272;17.780;2022-08-19T11:17:02;11.88;;;4.05;;
17235;SDS011;8734;59.272;17.780;2022-08-19T11:19:32;11.85;;;4.32;;
17235;SDS011;8734;59.272;17.780;2022-08-19T11:22:01;12.02;;;4.45;;
17235;SDS011;8734;59.272;17.780;2022-08-19T11:24:30;11.88;;;3.97;;
17235;SDS011;8734;59.272;17.780;2022-08-19T11:27:03;9.05;;;4.00;;
17235;SDS011;8734;59.272;17.780;2022-08-19T11:29:35;9.60;;;4.63;;
17235;SDS011;8734;59.272;17.780;2022-08-19T11:32:06;7.53;;;4.00;;
17235;SDS011;8734;59.272;17.780;2022-08-19T11:34:37;9.30;;;3.88;;
17235;SDS011;8734;59.272;17.780;2022-08-19T11:37:06;6.22;;;3.63;;
17235;SDS011;8734;59.272;17.780;2022-08-19T11:39:35;18.42;;;4.75;;
17235;SDS011;8734;59.272;17.780;2022-08-19T11:42:05;14.32;;;4.30;;
17235;SDS011;8734;59.272;17.780;2022-08-19T11:44:56;7.28;;;3.33;;
17235;SDS011;8734;59.272;17.780;2022-08-19T11:47:24;10.68;;;3.95;;
17235;SDS011;8734;59.272;17.780;2022-08-19T11:49:52;16.10;;;4.00;;
17235;SDS011;8734;59.272;17.780;2022-08-19T11:52:21;11.55;;;4.28;;
17235;SDS011;8734;59.272;17.780;2022-08-19T11:54:49;16.83;;;4.28;;
17235;SDS011;8734;59.272;17.780;2022-08-19T11:57:17;10.55;;;3.97;;
17235;SDS011;8734;59.272;17.780;2022-08-19T11:59:50;13.38;;;3.97;;
17235;SDS011;8734;59.272;17.780;2022-08-19T12:02:20;6.95;;;4.03;;
17235;SDS011;8734;59.272;17.780;2022-08-19T12:04:49;12.63;;;3.58;;
17235;SDS011;8734;59.272;17.780;2022-08-19T12:07:17;8.95;;;4.70;;
17235;SDS011;8734;59.272;17.780;2022-08-19T12:09:46;14.95;;;3.80;;
17235;SDS011;8734;59.272;17.780;2022-08-19T12:12:14;10.60;;;4.22;;
17235;SDS011;8734;59.272;17.780;2022-08-19T12:14:43;11.93;;;4.35;;
17235;SDS011;8734;59.272;17.780;2022-08-19T12:17:13;13.68;;;3.85;;
17235;SDS011;8734;59.272;17.780;2022-08-19T12:19:44;13.65;;;4.15;;
17235;SDS011;8734;59.272;17.780;2022-08-19T12:22:12;14.13;;;3.90;;
17235;SDS011;8734;59.272;17.780;2022-08-19T12:24:41;12.70;;;4.30;;
17235;SDS011;8734;59.272;17.780;2022-08-19T12:27:09;6.82;;;4.20;;
17235;SDS011;8734;59.272;17.780;2022-08-19T12:29:45;14.40;;;4.00;;
17235;SDS011;8734;59.272;17.780;2022-08-19T12:32:14;13.27;;;4.55;;
17235;SDS011;8734;59.272;17.780;2022-08-19T12:34:44;10.55;;;4.20;;
17235;SDS011;8734;59.272;17.780;2022-08-19T12:37:13;10.82;;;4.38;;
17235;SDS011;8734;59.272;17.780;2022-08-19T12:39:43;14.27;;;4.80;;
17235;SDS011;8734;59.272;17.780;2022-08-19T12:42:13;17.27;;;4.13;;
17235;SDS011;8734;59.272;17.780;2022-08-19T12:44:42;16.77;;;4.50;;
17235;SDS011;8734;59.272;17.780;2022-08-19T12:47:11;11.40;;;4.53;;
17235;SDS011;8734;59.272;17.780;2022-08-19T12:49:41;10.45;;;4.38;;
17235;SDS011;8734;59.272;17.780;2022-08-19T12:52:22;13.38;;;3.90;;
17235;SDS011;8734;59.272;17.780;2022-08-19T12:54:54;11.88;;;4.38;;
17235;SDS011;8734;59.272;17.780;2022-08-19T12:57:24;16.77;;;4.00;;
17235;SDS011;8734;59.272;17.780;2022-08-19T12:59:59;17.58;;;3.95;;
17235;SDS011;8734;59.272;17.780;2022-08-19T13:02:31;12.00;;;3.85;;
17235;SDS011;8734;59.272;17.780;2022-08-19T13:05:05;17.10;;;4.07;;
17235;SDS011;8734;59.272;17.780;2022-08-19T13:07:37;12.57;;;4.75;;
17235;SDS011;8734;59.272;17.780;2022-08-19T13:10:07;15.32;;;4.15;;
17235;SDS011;8734;59.272;17.780;2022-08-19T13:12:37;10.80;;;4.65;;
17235;SDS011;8734;59.272;17.780;2022-08-19T13:15:07;7.78;;;4.22;;
17235;SDS011;8734;59.272;17.780;2022-08-19T13:17:37;17.23;;;4.57;;
17235;SDS011;8734;59.272;17.780;2022-08-19T13:20:07;7.40;;;4.03;;
17235;SDS011;8734;59.272;17.780;2022-08-19T13:22:38;13.65;;;4.68;;
17235;SDS011;8734;59.272;17.780;2022-08-19T13:25:07;16.13;;;4.50;;
17235;SDS011;8734;59.272;17.780;2022-08-19T13:27:36;18.33;;;4.55;;
17235;SDS011;8734;59.272;17.780;2022-08-19T13:30:07;14.07;;;4.53;;
17235;SDS011;8734;59.272;17.780;2022-08-19T13:32:54;13.40;;;4.82;;
17235;SDS011;8734;59.272;17.780;2022-08-19T13:35:42;13.48;;;4.55;;
17235;SDS011;8734;59.272;17.780;2022-08-19T13:38:15;10.55;;;4.53;;
17235;SDS011;8734;59.272;17.780;2022-08-19T13:40:45;23.25;;;5.30;;
17235;SDS011;8734;59.272;17.780;2022-08-19T13:43:16;11.40;;;4.50;;
17235;SDS011;8734;59.272;17.780;2022-08-19T13:45:49;15.77;;;4.85;;
17235;SDS011;8734;59.272;17.780;2022-08-19T13:48:19;13.40;;;5.00;;
17235;SDS011;8734;59.272;17.780;2022-08-19T13:50:47;20.20;;;4.88;;
17235;SDS011;8734;59.272;17.780;2022-08-19T13:53:17;17.88;;;4.75;;
17235;SDS011;8734;59.272;17.780;2022-08-19T13:55:46;13.65;;;4.88;;
17235;SDS011;8734;59.272;17.780;2022-08-19T13:58:16;11.13;;;4.82;;
17235;SDS011;8734;59.272;17.780;2022-08-19T14:00:45;14.85;;;5.45;;
17235;SDS011;8734;59.272;17.780;2022-08-19T14:03:16;15.88;;;5.57;;
17235;SDS011;8734;59.272;17.780;2022-08-19T14:05:44;15.90;;;5.35;;
17235;SDS011;8734;59.272;17.780;2022-08-19T14:08:13;12.57;;;5.38;;
17235;SDS011;8734;59.272;17.780;2022-08-19T14:10:44;7.95;;;4.68;;
17235;SDS011;8734;59.272;17.780;2022-08-19T14:13:13;12.38;;;4.63;;
17235;SDS011;8734;59.272;17.780;2022-08-19T14:15:45;14.77;;;5.28;;
17235;SDS011;8734;59.272;17.780;2022-08-19T14:18:13;16.02;;;4.60;;
17235;SDS011;8734;59.272;17.780;2022-08-19T14:20:43;11.38;;;4.95;;
17235;SDS011;8734;59.272;17.780;2022-08-19T14:23:12;18.98;;;4.78;;
17235;SDS011;8734;59.272;17.780;2022-08-19T14:25:41;14.77;;;4.47;;
17235;SDS011;8734;59.272;17.780;2022-08-19T14:28:11;17.35;;;4.57;;
17235;SDS011;8734;59.272;17.780;2022-08-19T14:30:39;13.05;;;5.00;;
17235;SDS011;8734;59.272;17.780;2022-08-19T14:33:08;14.55;;;5.68;;
17235;SDS011;8734;59.272;17.780;2022-08-19T14:35:36;11.55;;;5.03;;
17235;SDS011;8734;59.272;17.780;2022-08-19T14:38:05;12.00;;;5.47;;
17235;SDS011;8734;59.272;17.780;2022-08-19T14:40:42;15.57;;;5.45;;
17235;SDS011;8734;59.272;17.780;2022-08-19T14:43:12;17.65;;;5.90;;
17235;SDS011;8734;59.272;17.780;2022-08-19T14:45:43;17.98;;;5.43;;
17235;SDS011;8734;59.272;17.780;2022-08-19T14:48:12;14.93;;;5.60;;
17235;SDS011;8734;59.272;17.780;2022-08-19T14:50:44;16.25;;;5.30;;
17235;SDS011;8734;59.272;17.780;2022-08-19T14:53:15;16.88;;;4.65;;
17235;SDS011;8734;59.272;17.780;2022-08-19T14:55:45;20.67;;;4.65;;